Terminal Aerodrome Forecast
Issued by NWS

Home | Current Version | Previous Version | Text Only | Print | Product List | Glossary On
Versions: 1 2 3 4 5 6 7 8 9 10 11 12 13 14 15 16 17 18 19 20 21
000
FTUS44 KCRP 310500
TAFALI
TAF
KALI 310535Z 3106/0106 17009KT P6SM BKN020
      TEMPO 3106/3110 SCT019
     FM311000 17004KT P6SM BKN016
      TEMPO 3110/3114 SCT016
     FM311400 16012KT P6SM SCT030
      TEMPO 3114/3116 BKN025
     FM312100 14016G22KT P6SM FEW050
     FM010200 14012KT P6SM BKN250=

USA.gov is the U.S. government's official web portal to all federal, state and local government web resources and services.